sensor_id;sensor_type;location;lat;lon;timestamp;pressure;altitude;pressure_sealevel;temperature;humidity
51617;BME280;37697;52.588;13.394;2023-04-23T00:05:41;100248.15;;;14.56;45.40
51617;BME280;37697;52.588;13.394;2023-04-23T00:11:08;100243.74;;;14.52;45.70
51617;BME280;37697;52.588;13.394;2023-04-23T00:16:28;100240.76;;;14.48;45.83
51617;BME280;37697;52.588;13.394;2023-04-23T00:21:54;100238.79;;;14.44;45.89
51617;BME280;37697;52.588;13.394;2023-04-23T00:27:19;100233.34;;;14.40;46.09
51617;BME280;37697;52.588;13.394;2023-04-23T00:32:45;100233.47;;;14.37;46.26
51617;BME280;37697;52.588;13.394;2023-04-23T00:38:10;100228.84;;;14.36;46.40
51617;BME280;37697;52.588;13.394;2023-04-23T00:43:35;100224.21;;;14.37;46.45
51617;BME280;37697;52.588;13.394;2023-04-23T00:49:02;100218.92;;;14.37;46.58
51617;BME280;37697;52.588;13.394;2023-04-23T00:54:28;100212.99;;;14.39;46.73
51617;BME280;37697;52.588;13.394;2023-04-23T00:59:54;100206.70;;;14.41;46.81
51617;BME280;37697;52.588;13.394;2023-04-23T01:05:20;100202.81;;;14.43;46.99
51617;BME280;37697;52.588;13.394;2023-04-23T01:10:48;100202.02;;;14.43;47.07
51617;BME280;37697;52.588;13.394;2023-04-23T01:16:14;100202.40;;;14.42;47.09
51617;BME280;37697;52.588;13.394;2023-04-23T01:21:40;100201.86;;;14.40;47.24
51617;BME280;37697;52.588;13.394;2023-04-23T01:27:06;100203.65;;;14.37;47.41
51617;BME280;37697;52.588;13.394;2023-04-23T01:32:32;100199.05;;;14.35;47.59
51617;BME280;37697;52.588;13.394;2023-04-23T01:37:59;100196.41;;;14.34;47.70
51617;BME280;37697;52.588;13.394;2023-04-23T01:43:27;100198.97;;;14.33;48.01
51617;BME280;37697;52.588;13.394;2023-04-23T01:48:53;100202.04;;;14.32;48.09
51617;BME280;37697;52.588;13.394;2023-04-23T01:54:19;100199.34;;;14.29;48.64
51617;BME280;37697;52.588;13.394;2023-04-23T01:59:45;100201.56;;;14.23;49.71
51617;BME280;37697;52.588;13.394;2023-04-23T02:05:13;100200.70;;;14.14;51.06
51617;BME280;37697;52.588;13.394;2023-04-23T02:10:39;100197.63;;;13.99;52.52
51617;BME280;37697;52.588;13.394;2023-04-23T02:16:06;100191.14;;;13.82;54.13
51617;BME280;37697;52.588;13.394;2023-04-23T02:21:32;100188.55;;;13.64;55.94
51617;BME280;37697;52.588;13.394;2023-04-23T02:26:58;100194.55;;;13.44;57.83
51617;BME280;37697;52.588;13.394;2023-04-23T02:32:23;100195.52;;;13.25;59.16
51617;BME280;37697;52.588;13.394;2023-04-23T02:37:49;100187.42;;;13.14;60.25
51617;BME280;37697;52.588;13.394;2023-04-23T02:43:15;100187.35;;;13.03;61.28
51617;BME280;37697;52.588;13.394;2023-04-23T02:48:41;100184.52;;;13.01;62.19
51617;BME280;37697;52.588;13.394;2023-04-23T02:54:07;100186.91;;;12.98;63.10
51617;BME280;37697;52.588;13.394;2023-04-23T02:59:33;100187.21;;;12.96;63.58
51617;BME280;37697;52.588;13.394;2023-04-23T03:04:59;100182.23;;;12.94;64.14
51617;BME280;37697;52.588;13.394;2023-04-23T03:10:24;100180.22;;;12.91;64.96
51617;BME280;37697;52.588;13.394;2023-04-23T03:15:51;100178.16;;;12.86;65.31
51617;BME280;37697;52.588;13.394;2023-04-23T03:21:17;100173.58;;;12.84;66.01
51617;BME280;37697;52.588;13.394;2023-04-23T03:26:43;100170.28;;;12.81;66.56
51617;BME280;37697;52.588;13.394;2023-04-23T03:32:08;100167.77;;;12.76;67.22
51617;BME280;37697;52.588;13.394;2023-04-23T03:37:34;100166.08;;;12.79;67.39
51617;BME280;37697;52.588;13.394;2023-04-23T03:42:52;100163.86;;;12.84;67.66
51617;BME280;37697;52.588;13.394;2023-04-23T03:48:18;100158.49;;;12.86;68.13
51617;BME280;37697;52.588;13.394;2023-04-23T03:53:44;100159.27;;;12.86;68.41
51617;BME280;37697;52.588;13.394;2023-04-23T03:59:10;100161.89;;;12.90;68.95
51617;BME280;37697;52.588;13.394;2023-04-23T04:04:35;100160.98;;;12.95;68.96
51617;BME280;37697;52.588;13.394;2023-04-23T04:10:02;100158.41;;;12.96;69.10
51617;BME280;37697;52.588;13.394;2023-04-23T04:15:27;100154.52;;;12.98;69.42
51617;BME280;37697;52.588;13.394;2023-04-23T04:20:53;100151.33;;;12.89;70.04
51617;BME280;37697;52.588;13.394;2023-04-23T04:26:19;100145.94;;;12.82;70.47
51617;BME280;37697;52.588;13.394;2023-04-23T04:31:45;100152.22;;;12.81;70.98
51617;BME280;37697;52.588;13.394;2023-04-23T04:37:11;100156.19;;;12.84;71.25
51617;BME280;37697;52.588;13.394;2023-04-23T04:42:37;100154.25;;;12.83;71.68
51617;BME280;37697;52.588;13.394;2023-04-23T04:48:02;100148.20;;;12.88;72.03
51617;BME280;37697;52.588;13.394;2023-04-23T04:53:28;100152.94;;;12.98;72.32
51617;BME280;37697;52.588;13.394;2023-04-23T04:58:47;100158.88;;;13.10;72.37
51617;BME280;37697;52.588;13.394;2023-04-23T05:04:12;100166.17;;;13.21;72.46
51617;BME280;37697;52.588;13.394;2023-04-23T05:09:39;100163.77;;;13.25;72.73
51617;BME280;37697;52.588;13.394;2023-04-23T05:15:06;100168.85;;;13.24;72.74
51617;BME280;37697;52.588;13.394;2023-04-23T05:20:32;100169.27;;;13.25;72.90
51617;BME280;37697;52.588;13.394;2023-04-23T05:25:58;100165.95;;;13.29;73.34
51617;BME280;37697;52.588;13.394;2023-04-23T05:31:22;100171.30;;;13.36;73.33
51617;BME280;37697;52.588;13.394;2023-04-23T05:36:48;100170.02;;;13.52;73.55
51617;BME280;37697;52.588;13.394;2023-04-23T05:42:13;100169.56;;;13.85;73.25
51617;BME280;37697;52.588;13.394;2023-04-23T05:47:39;100175.66;;;14.04;72.89
51617;BME280;37697;52.588;13.394;2023-04-23T05:53:05;100180.55;;;14.04;72.79
51617;BME280;37697;52.588;13.394;2023-04-23T05:58:31;100186.73;;;13.93;72.73
51617;BME280;37697;52.588;13.394;2023-04-23T06:03:57;100186.95;;;13.89;73.12
51617;BME280;37697;52.588;13.394;2023-04-23T06:09:23;100183.74;;;13.85;73.31
51617;BME280;37697;52.588;13.394;2023-04-23T06:14:47;100185.73;;;13.94;73.91
51617;BME280;37697;52.588;13.394;2023-04-23T06:20:13;100188.73;;;14.03;73.91
51617;BME280;37697;52.588;13.394;2023-04-23T06:25:31;100191.13;;;14.12;73.94
51617;BME280;37697;52.588;13.394;2023-04-23T06:30:57;100190.18;;;14.19;74.01
51617;BME280;37697;52.588;13.394;2023-04-23T06:36:23;100189.85;;;14.20;73.95
51617;BME280;37697;52.588;13.394;2023-04-23T06:41:49;100192.02;;;14.19;74.36
51617;BME280;37697;52.588;13.394;2023-04-23T06:47:14;100196.03;;;14.23;74.33
51617;BME280;37697;52.588;13.394;2023-04-23T06:52:40;100197.80;;;14.35;74.82
51617;BME280;37697;52.588;13.394;2023-04-23T06:58:07;100199.65;;;14.36;74.63
51617;BME280;37697;52.588;13.394;2023-04-23T07:03:33;100198.63;;;14.25;74.91
51617;BME280;37697;52.588;13.394;2023-04-23T07:08:58;100196.61;;;14.15;75.22
51617;BME280;37697;52.588;13.394;2023-04-23T07:14:25;100201.71;;;14.10;75.79
51617;BME280;37697;52.588;13.394;2023-04-23T07:19:50;100208.95;;;13.98;76.05
51617;BME280;37697;52.588;13.394;2023-04-23T07:25:16;100211.20;;;13.81;76.56
51617;BME280;37697;52.588;13.394;2023-04-23T07:30:42;100214.06;;;13.73;77.11
51617;BME280;37697;52.588;13.394;2023-04-23T07:36:08;100212.67;;;13.72;77.46
51617;BME280;37697;52.588;13.394;2023-04-23T07:41:33;100214.09;;;13.72;77.73
51617;BME280;37697;52.588;13.394;2023-04-23T07:46:59;100224.38;;;13.74;78.24
51617;BME280;37697;52.588;13.394;2023-04-23T07:52:18;100226.27;;;13.72;78.06
51617;BME280;37697;52.588;13.394;2023-04-23T07:57:44;100225.13;;;13.73;78.29
51617;BME280;37697;52.588;13.394;2023-04-23T08:03:10;100228.27;;;13.73;78.65
51617;BME280;37697;52.588;13.394;2023-04-23T08:08:36;100233.88;;;13.66;78.87
51617;BME280;37697;52.588;13.394;2023-04-23T08:14:02;100231.61;;;13.61;79.13
51617;BME280;37697;52.588;13.394;2023-04-23T08:19:28;100236.10;;;13.64;79.61
51617;BME280;37697;52.588;13.394;2023-04-23T08:24:54;100235.01;;;13.71;79.90
51617;BME280;37697;52.588;13.394;2023-04-23T08:30:19;100226.96;;;13.84;80.46
51617;BME280;37697;52.588;13.394;2023-04-23T08:35:45;100226.55;;;14.12;81.29
51617;BME280;37697;52.588;13.394;2023-04-23T08:41:13;100228.21;;;14.47;80.84
51617;BME280;37697;52.588;13.394;2023-04-23T08:46:42;100233.02;;;14.55;80.07
51617;BME280;37697;52.588;13.394;2023-04-23T08:52:15;100230.73;;;14.57;79.82
51617;BME280;37697;52.588;13.394;2023-04-23T08:57:42;100230.02;;;14.82;80.04
51617;BME280;37697;52.588;13.394;2023-04-23T09:03:08;100232.91;;;14.96;79.73
51617;BME280;37697;52.588;13.394;2023-04-23T09:08:34;100237.05;;;14.85;78.64
51617;BME280;37697;52.588;13.394;2023-04-23T09:14:00;100242.63;;;14.51;78.68
51617;BME280;37697;52.588;13.394;2023-04-23T09:19:27;100244.27;;;14.20;79.05
51617;BME280;37697;52.588;13.394;2023-04-23T09:24:43;100249.11;;;14.08;79.79
51617;BME280;37697;52.588;13.394;2023-04-23T09:30:11;100253.54;;;13.93;79.99
51617;BME280;37697;52.588;13.394;2023-04-23T09:35:37;100264.44;;;13.72;80.36
51617;BME280;37697;52.588;13.394;2023-04-23T09:41:20;100264.80;;;13.55;80.58
51617;BME280;37697;52.588;13.394;2023-04-23T09:46:46;100276.60;;;13.35;80.85
51617;BME280;37697;52.588;13.394;2023-04-23T09:52:12;100279.93;;;13.27;81.01
51617;BME280;37697;52.588;13.394;2023-04-23T09:57:24;100285.50;;;13.16;80.87
51617;BME280;37697;52.588;13.394;2023-04-23T10:02:51;100287.21;;;13.02;80.57
51617;BME280;37697;52.588;13.394;2023-04-23T10:08:17;100288.71;;;13.02;80.94
51617;BME280;37697;52.588;13.394;2023-04-23T10:13:43;100288.27;;;13.10;80.94
51617;BME280;37697;52.588;13.394;2023-04-23T10:19:09;100298.02;;;13.17;80.81
51617;BME280;37697;52.588;13.394;2023-04-23T10:24:40;100304.27;;;13.19;80.90
51617;BME280;37697;52.588;13.394;2023-04-23T10:30:09;100302.61;;;13.26;80.98
51617;BME280;37697;52.588;13.394;2023-04-23T10:35:35;100307.20;;;13.38;80.75
51617;BME280;37697;52.588;13.394;2023-04-23T10:41:02;100306.64;;;13.45;80.24
51617;BME280;37697;52.588;13.394;2023-04-23T10:46:32;100302.86;;;13.54;79.53
51617;BME280;37697;52.588;13.394;2023-04-23T10:52:03;100290.79;;;13.80;79.21
51617;BME280;37697;52.588;13.394;2023-04-23T10:57:30;100287.48;;;14.02;78.34
51617;BME280;37697;52.588;13.394;2023-04-23T11:03:30;100285.94;;;14.30;77.86
51617;BME280;37697;52.588;13.394;2023-04-23T11:08:56;100294.55;;;14.69;77.23
51617;BME280;37697;52.588;13.394;2023-04-23T11:14:33;100298.38;;;14.97;75.97
51617;BME280;37697;52.588;13.394;2023-04-23T11:20:11;100298.93;;;15.09;75.15
51617;BME280;37697;52.588;13.394;2023-04-23T11:25:42;100295.76;;;15.13;74.70
51617;BME280;37697;52.588;13.394;2023-04-23T11:31:09;100294.91;;;15.02;74.51
51617;BME280;37697;52.588;13.394;2023-04-23T11:36:35;100291.96;;;15.09;75.23
51617;BME280;37697;52.588;13.394;2023-04-23T11:42:01;100297.30;;;15.17;75.20
51617;BME280;37697;52.588;13.394;2023-04-23T11:47:28;100310.45;;;14.98;74.80
51617;BME280;37697;52.588;13.394;2023-04-23T11:52:57;100306.96;;;14.87;74.73
51617;BME280;37697;52.588;13.394;2023-04-23T11:58:28;100302.41;;;15.06;74.83
51617;BME280;37697;52.588;13.394;2023-04-23T12:03:54;100301.12;;;15.49;74.98
51617;BME280;37697;52.588;13.394;2023-04-23T12:09:22;100294.83;;;15.85;74.30
51617;BME280;37697;52.588;13.394;2023-04-23T12:14:48;100295.11;;;16.05;73.69
51617;BME280;37697;52.588;13.394;2023-04-23T12:20:19;100297.67;;;16.06;72.18
51617;BME280;37697;52.588;13.394;2023-04-23T12:25:45;100297.44;;;16.00;71.93
51617;BME280;37697;52.588;13.394;2023-04-23T12:31:17;100305.54;;;16.09;71.67
51617;BME280;37697;52.588;13.394;2023-04-23T12:36:48;100304.11;;;16.14;70.49
51617;BME280;37697;52.588;13.394;2023-04-23T12:42:14;100306.16;;;16.27;70.57
51617;BME280;37697;52.588;13.394;2023-04-23T12:47:48;100308.95;;;16.47;69.85
51617;BME280;37697;52.588;13.394;2023-04-23T12:53:14;100300.21;;;16.68;69.17
51617;BME280;37697;52.588;13.394;2023-04-23T12:58:40;100299.55;;;16.83;68.03
51617;BME280;37697;52.588;13.394;2023-04-23T13:04:06;100289.29;;;17.03;67.45
51617;BME280;37697;52.588;13.394;2023-04-23T13:09:31;100288.20;;;17.08;66.69
51617;BME280;37697;52.588;13.394;2023-04-23T13:14:58;100282.86;;;17.17;66.15
51617;BME280;37697;52.588;13.394;2023-04-23T13:20:24;100287.83;;;17.72;64.47
51617;BME280;37697;52.588;13.394;2023-04-23T13:25:50;100282.91;;;17.86;62.43
51617;BME280;37697;52.588;13.394;2023-04-23T13:31:16;100287.98;;;17.75;61.81
51617;BME280;37697;52.588;13.394;2023-04-23T13:36:42;100273.05;;;18.04;61.50
51617;BME280;37697;52.588;13.394;2023-04-23T13:42:07;100265.56;;;18.27;59.90
51617;BME280;37697;52.588;13.394;2023-04-23T13:47:33;100257.10;;;18.33;59.63
51617;BME280;37697;52.588;13.394;2023-04-23T13:52:59;100253.05;;;18.42;58.15
51617;BME280;37697;52.588;13.394;2023-04-23T13:58:25;100248.33;;;18.37;57.78
51617;BME280;37697;52.588;13.394;2023-04-23T14:03:50;100246.54;;;18.47;57.90
51617;BME280;37697;52.588;13.394;2023-04-23T14:09:18;100241.95;;;18.45;56.94
51617;BME280;37697;52.588;13.394;2023-04-23T14:14:44;100240.13;;;18.21;55.84
51617;BME280;37697;52.588;13.394;2023-04-23T14:20:09;100237.79;;;18.20;55.15
51617;BME280;37697;52.588;13.394;2023-04-23T14:25:40;100232.88;;;17.98;54.94
51617;BME280;37697;52.588;13.394;2023-04-23T14:31:06;100226.15;;;17.78;55.16
51617;BME280;37697;52.588;13.394;2023-04-23T14:36:32;100216.52;;;18.03;54.64
51617;BME280;37697;52.588;13.394;2023-04-23T14:41:58;100213.80;;;18.07;53.82
51617;BME280;37697;52.588;13.394;2023-04-23T14:47:23;100208.46;;;18.10;53.57
51617;BME280;37697;52.588;13.394;2023-04-23T14:52:49;100201.41;;;18.28;53.63
51617;BME280;37697;52.588;13.394;2023-04-23T14:58:14;100197.14;;;18.38;52.93
51617;BME280;37697;52.588;13.394;2023-04-23T15:03:41;100196.80;;;18.41;52.44
51617;BME280;37697;52.588;13.394;2023-04-23T15:08:59;100191.40;;;18.21;51.49
51617;BME280;37697;52.588;13.394;2023-04-23T15:14:30;100184.33;;;18.17;51.60
51617;BME280;37697;52.588;13.394;2023-04-23T15:19:56;100184.41;;;18.14;51.26
51617;BME280;37697;52.588;13.394;2023-04-23T15:25:22;100174.92;;;18.13;51.02
51617;BME280;37697;52.588;13.394;2023-04-23T15:30:48;100169.48;;;18.16;50.54
51617;BME280;37697;52.588;13.394;2023-04-23T15:36:15;100167.48;;;17.99;50.51
51617;BME280;37697;52.588;13.394;2023-04-23T15:41:41;100159.88;;;17.93;49.98
51617;BME280;37697;52.588;13.394;2023-04-23T15:47:07;100160.85;;;17.98;49.88
51617;BME280;37697;52.588;13.394;2023-04-23T15:52:33;100157.70;;;18.00;49.83
51617;BME280;37697;52.588;13.394;2023-04-23T15:57:59;100160.09;;;17.88;49.21
51617;BME280;37697;52.588;13.394;2023-04-23T16:03:25;100158.65;;;17.61;48.94
51617;BME280;37697;52.588;13.394;2023-04-23T16:09:10;100157.15;;;17.40;49.29
51617;BME280;37697;52.588;13.394;2023-04-23T16:14:36;100143.33;;;17.29;49.64
51617;BME280;37697;52.588;13.394;2023-04-23T16:20:02;100141.05;;;17.28;50.04
51617;BME280;37697;52.588;13.394;2023-04-23T16:25:28;100139.69;;;17.24;49.55
51617;BME280;37697;52.588;13.394;2023-04-23T16:30:54;100136.46;;;17.18;49.49
51617;BME280;37697;52.588;13.394;2023-04-23T16:36:20;100131.90;;;16.99;49.44
51617;BME280;37697;52.588;13.394;2023-04-23T16:41:46;100128.61;;;16.79;49.41
51617;BME280;37697;52.588;13.394;2023-04-23T16:47:12;100124.34;;;16.70;49.89
51617;BME280;37697;52.588;13.394;2023-04-23T16:52:36;100117.21;;;16.60;50.17
51617;BME280;37697;52.588;13.394;2023-04-23T16:58:02;100119.25;;;16.50;49.96
51617;BME280;37697;52.588;13.394;2023-04-23T17:03:28;100120.11;;;16.47;50.46
51617;BME280;37697;52.588;13.394;2023-04-23T17:08:55;100108.61;;;16.32;50.92
51617;BME280;37697;52.588;13.394;2023-04-23T17:14:20;100098.64;;;16.23;50.98
51617;BME280;37697;52.588;13.394;2023-04-23T17:19:46;100094.11;;;16.11;51.95
51617;BME280;37697;52.588;13.394;2023-04-23T17:25:12;100094.11;;;15.99;51.91
51617;BME280;37697;52.588;13.394;2023-04-23T17:30:38;100094.26;;;15.76;51.89
51617;BME280;37697;52.588;13.394;2023-04-23T17:36:04;100086.73;;;15.59;52.43
51617;BME280;37697;52.588;13.394;2023-04-23T17:41:30;100084.08;;;15.58;53.01
51617;BME280;37697;52.588;13.394;2023-04-23T17:46:56;100081.02;;;15.53;53.85
51617;BME280;37697;52.588;13.394;2023-04-23T17:52:22;100080.48;;;15.49;54.53
51617;BME280;37697;52.588;13.394;2023-04-23T17:57:48;100079.38;;;15.32;55.25
51617;BME280;37697;52.588;13.394;2023-04-23T18:03:14;100077.54;;;15.18;55.58
51617;BME280;37697;52.588;13.394;2023-04-23T18:08:41;100079.22;;;15.13;55.78
51617;BME280;37697;52.588;13.394;2023-04-23T18:14:07;100081.23;;;15.07;55.40
51617;BME280;37697;52.588;13.394;2023-04-23T18:19:32;100084.95;;;14.99;55.94
51617;BME280;37697;52.588;13.394;2023-04-23T18:24:58;100089.02;;;14.88;56.57
51617;BME280;37697;52.588;13.394;2023-04-23T18:30:24;100093.13;;;14.69;57.05
51617;BME280;37697;52.588;13.394;2023-04-23T18:35:49;100095.14;;;14.52;57.68
51617;BME280;37697;52.588;13.394;2023-04-23T18:41:19;100100.48;;;14.34;58.13
51617;BME280;37697;52.588;13.394;2023-04-23T18:46:45;100106.45;;;14.14;58.50
51617;BME280;37697;52.588;13.394;2023-04-23T18:52:11;100111.81;;;13.97;58.95
51617;BME280;37697;52.588;13.394;2023-04-23T18:57:30;100110.95;;;13.82;59.22
51617;BME280;37697;52.588;13.394;2023-04-23T19:02:55;100105.55;;;13.64;59.68
51617;BME280;37697;52.588;13.394;2023-04-23T19:08:31;100100.09;;;13.48;59.93
51617;BME280;37697;52.588;13.394;2023-04-23T19:13:55;100095.70;;;13.34;60.07
51617;BME280;37697;52.588;13.394;2023-04-23T19:19:21;100095.40;;;13.15;60.44
51617;BME280;37697;52.588;13.394;2023-04-23T19:24:40;100099.48;;;13.02;60.85
51617;BME280;37697;52.588;13.394;2023-04-23T19:30:07;100102.41;;;12.90;61.00
51617;BME280;37697;52.588;13.394;2023-04-23T19:35:36;100095.88;;;12.73;61.43
51617;BME280;37697;52.588;13.394;2023-04-23T19:41:02;100100.08;;;12.61;61.69
51617;BME280;37697;52.588;13.394;2023-04-23T19:46:28;100093.11;;;12.50;61.90
51617;BME280;37697;52.588;13.394;2023-04-23T19:51:54;100078.33;;;12.35;62.20
51617;BME280;37697;52.588;13.394;2023-04-23T19:57:14;100071.87;;;12.25;62.50
51617;BME280;37697;52.588;13.394;2023-04-23T20:02:40;100077.84;;;12.15;62.69
51617;BME280;37697;52.588;13.394;2023-04-23T20:08:06;100070.90;;;12.06;62.89
51617;BME280;37697;52.588;13.394;2023-04-23T20:13:32;100067.02;;;11.96;63.03
51617;BME280;37697;52.588;13.394;2023-04-23T20:18:58;100063.95;;;11.91;63.39
51617;BME280;37697;52.588;13.394;2023-04-23T20:24:23;100057.39;;;11.83;63.59
51617;BME280;37697;52.588;13.394;2023-04-23T20:29:44;100057.64;;;11.76;63.98
51617;BME280;37697;52.588;13.394;2023-04-23T20:35:10;100057.26;;;11.69;64.09
51617;BME280;37697;52.588;13.394;2023-04-23T20:40:36;100059.27;;;11.63;64.32
51617;BME280;37697;52.588;13.394;2023-04-23T20:46:02;100053.70;;;11.60;64.43
51617;BME280;37697;52.588;13.394;2023-04-23T20:51:30;100047.61;;;11.52;64.59
51617;BME280;37697;52.588;13.394;2023-04-23T20:56:59;100038.98;;;11.45;64.82
51617;BME280;37697;52.588;13.394;2023-04-23T21:02:24;100031.73;;;11.37;65.11
51617;BME280;37697;52.588;13.394;2023-04-23T21:07:44;100021.25;;;11.33;65.33
51617;BME280;37697;52.588;13.394;2023-04-23T21:13:11;100013.89;;;11.25;65.63
51617;BME280;37697;52.588;13.394;2023-04-23T21:18:37;100011.35;;;11.18;65.82
51617;BME280;37697;52.588;13.394;2023-04-23T21:24:03;100001.05;;;11.11;66.08
51617;BME280;37697;52.588;13.394;2023-04-23T21:29:28;99993.10;;;11.02;66.44
51617;BME280;37697;52.588;13.394;2023-04-23T21:34:54;99990.23;;;10.95;66.62
51617;BME280;37697;52.588;13.394;2023-04-23T21:40:20;99981.19;;;10.88;67.03
51617;BME280;37697;52.588;13.394;2023-04-23T21:45:46;99976.23;;;10.82;67.33
51617;BME280;37697;52.588;13.394;2023-04-23T21:51:11;99968.08;;;10.78;67.71
51617;BME280;37697;52.588;13.394;2023-04-23T21:56:37;99952.69;;;10.74;68.14
51617;BME280;37697;52.588;13.394;2023-04-23T22:02:03;99950.39;;;10.70;68.45
51617;BME280;37697;52.588;13.394;2023-04-23T22:07:22;99954.05;;;10.66;69.00
51617;BME280;37697;52.588;13.394;2023-04-23T22:12:49;99954.50;;;10.61;69.14
51617;BME280;37697;52.588;13.394;2023-04-23T22:18:14;99962.83;;;10.58;69.48
51617;BME280;37697;52.588;13.394;2023-04-23T22:23:33;99974.12;;;10.56;69.66
51617;BME280;37697;52.588;13.394;2023-04-23T22:28:59;99976.70;;;10.54;69.98
51617;BME280;37697;52.588;13.394;2023-04-23T22:34:24;99976.58;;;10.51;70.48
51617;BME280;37697;52.588;13.394;2023-04-23T22:39:40;99972.49;;;10.49;70.50
51617;BME280;37697;52.588;13.394;2023-04-23T22:45:07;99959.64;;;10.49;70.91
51617;BME280;37697;52.588;13.394;2023-04-23T22:50:33;99959.81;;;10.48;70.68
51617;BME280;37697;52.588;13.394;2023-04-23T22:55:59;99954.15;;;10.47;70.95
51617;BME280;37697;52.588;13.394;2023-04-23T23:01:23;99945.60;;;10.46;71.18
51617;BME280;37697;52.588;13.394;2023-04-23T23:06:49;99925.20;;;10.45;71.82
51617;BME280;37697;52.588;13.394;2023-04-23T23:12:07;99926.85;;;10.46;72.07
51617;BME280;37697;52.588;13.394;2023-04-23T23:17:33;99913.55;;;10.47;72.62
51617;BME280;37697;52.588;13.394;2023-04-23T23:22:59;99908.46;;;10.49;72.60
51617;BME280;37697;52.588;13.394;2023-04-23T23:28:25;99898.08;;;10.51;72.78
51617;BME280;37697;52.588;13.394;2023-04-23T23:33:50;99884.34;;;10.51;73.41
51617;BME280;37697;52.588;13.394;2023-04-23T23:39:16;99878.38;;;10.52;73.05
51617;BME280;37697;52.588;13.394;2023-04-23T23:44:42;99872.45;;;10.48;73.13
51617;BME280;37697;52.588;13.394;2023-04-23T23:50:09;99863.25;;;10.42;73.29
51617;BME280;37697;52.588;13.394;2023-04-23T23:55:35;99860.33;;;10.39;73.44
